Time;durP1;ratioP1;P1;durP2;ratioP2;P2;SDS_P1;SDS_P2;PMS_P1;PMS_P2;Temp;Humidity;BMP_temperature;BMP_pressure;BME280_temperature;BME280_humidity;BME280_pressure;Samples;Min_cycle;Max_cycle;Signal;HPM_P1;HPM_P2
2023/09/24 00:01:54;;;;;;;26.45;6.47;;;;;;;23.03;50.04;94430.78;4164185;28;20049;-69
2023/09/24 00:03:56;;;;;;;26.80;6.57;;;;;;;23.01;49.81;94432.88;4159700;28;20466;-69
2023/09/24 00:06:07;;;;;;;39.65;7.45;;;;;;;22.99;50.24;94426.94;4161363;28;20127;-68
2023/09/24 00:08:10;;;;;;;41.40;6.68;;;;;;;22.98;48.99;94435.22;4164784;28;20132;-69
2023/09/24 00:10:12;;;;;;;29.38;7.53;;;;;;;22.84;49.75;94430.19;4176489;28;20053;-69
2023/09/24 00:12:14;;;;;;;34.15;7.43;;;;;;;22.78;50.40;94439.16;4165497;28;20128;-69
2023/09/24 00:14:16;;;;;;;34.33;6.72;;;;;;;22.80;50.35;94428.22;4140794;28;20144;-69
2023/09/24 00:16:17;;;;;;;29.70;7.43;;;;;;;22.73;50.43;94433.72;4143847;28;20041;-69
2023/09/24 00:18:19;;;;;;;27.35;6.68;;;;;;;22.73;50.13;94433.72;4165137;28;20454;-69
2023/09/24 00:20:22;;;;;;;33.58;6.90;;;;;;;22.69;50.02;94437.94;4145622;28;20054;-67
2023/09/24 00:22:24;;;;;;;25.75;6.68;;;;;;;22.64;49.84;94448.53;4167973;28;20516;-68
2023/09/24 00:24:28;;;;;;;27.35;6.78;;;;;;;22.65;50.75;94445.63;4163077;28;20076;-67
2023/09/24 00:26:30;;;;;;;32.88;7.00;;;;;;;22.62;50.49;94437.28;4166625;28;20045;-67
2023/09/24 00:28:32;;;;;;;26.25;5.97;;;;;;;22.57;50.24;94437.19;4164418;28;20049;-68
2023/09/24 00:30:36;;;;;;;31.60;6.70;;;;;;;22.54;50.32;94451.81;4165626;28;20049;-70
2023/09/24 00:32:38;;;;;;;35.38;6.47;;;;;;;22.52;49.67;94451.28;4162778;28;20067;-68
2023/09/24 00:34:40;;;;;;;27.10;6.03;;;;;;;22.47;49.80;94451.97;4167418;28;20076;-68
2023/09/24 00:36:42;;;;;;;26.83;6.32;;;;;;;22.44;50.31;94455.13;4163621;28;20304;-68
2023/09/24 00:38:43;;;;;;;29.65;6.75;;;;;;;22.43;49.73;94461.50;4158584;28;20438;-68
2023/09/24 00:40:45;;;;;;;28.23;6.20;;;;;;;22.45;50.03;94453.25;4169924;28;20073;-68
2023/09/24 00:42:49;;;;;;;27.27;7.10;;;;;;;22.47;50.05;94461.84;4171190;28;20059;-68
2023/09/24 00:44:51;;;;;;;31.10;6.32;;;;;;;22.54;49.85;94459.03;4163985;28;20046;-67
2023/09/24 00:46:55;;;;;;;28.48;6.47;;;;;;;22.60;49.78;94456.19;4147511;28;20608;-67
2023/09/24 00:48:58;;;;;;;36.28;7.00;;;;;;;22.65;49.83;94463.47;4154284;28;20695;-69
2023/09/24 00:51:04;;;;;;;33.70;7.20;;;;;;;22.66;49.50;94451.78;4163204;28;20045;-69
2023/09/24 00:53:06;;;;;;;30.73;6.10;;;;;;;22.64;49.93;94443.19;4164420;28;20048;-69
2023/09/24 00:55:08;;;;;;;32.90;6.40;;;;;;;22.65;49.67;94444.78;4160781;28;20049;-69
2023/09/24 00:57:10;;;;;;;32.38;6.63;;;;;;;22.63;49.68;94441.59;4163931;28;20045;-69
2023/09/24 00:59:12;;;;;;;30.63;6.05;;;;;;;22.58;50.17;94442.28;4167144;28;20053;-68
2023/09/24 01:01:16;;;;;;;30.27;7.00;;;;;;;22.56;50.30;94438.22;4163592;28;20065;-69
2023/09/24 01:03:18;;;;;;;29.13;6.15;;;;;;;22.51;50.16;94438.97;4166070;28;20045;-69
2023/09/24 01:05:22;;;;;;;25.38;5.53;;;;;;;22.39;50.92;94433.69;4158369;28;20037;-70
2023/09/24 01:07:24;;;;;;;28.80;6.10;;;;;;;22.39;50.68;94427.50;4161876;28;20045;-70
2023/09/24 01:09:26;;;;;;;26.73;6.20;;;;;;;22.40;50.71;94440.63;4159318;28;20053;-69
2023/09/24 01:11:31;;;;;;;28.33;6.05;;;;;;;22.37;50.81;94430.44;4148533;28;20060;-69
2023/09/24 01:13:40;;;;;;;32.38;6.70;;;;;;;22.33;51.27;94429.31;4159434;28;20047;-69
2023/09/24 01:15:46;;;;;;;30.45;7.25;;;;;;;22.35;50.87;94429.88;4161909;28;20143;-68
2023/09/24 01:17:49;;;;;;;29.20;7.03;;;;;;;22.35;51.38;94434.38;4153933;28;20062;-68
2023/09/24 01:19:56;;;;;;;28.15;6.43;;;;;;;22.35;51.30;94437.03;4163634;28;20472;-69
2023/09/24 01:22:00;;;;;;;30.40;6.70;;;;;;;22.37;50.95;94425.09;4155708;28;20053;-68
2023/09/24 01:24:03;;;;;;;49.63;7.32;;;;;;;22.42;50.85;94424.38;4151269;28;20050;-68
2023/09/24 01:26:05;;;;;;;28.65;5.90;;;;;;;22.35;51.32;94421.88;4160119;28;20491;-68
2023/09/24 01:28:07;;;;;;;30.50;6.50;;;;;;;22.32;51.61;94418.84;4152741;28;20076;-67
2023/09/24 01:30:10;;;;;;;30.08;6.18;;;;;;;22.35;51.38;94419.19;4158856;28;20064;-67
2023/09/24 01:32:12;;;;;;;26.70;6.75;;;;;;;22.38;50.76;94410.69;4163081;28;20072;-69
2023/09/24 01:34:14;;;;;;;25.27;6.28;;;;;;;22.38;50.90;94400.03;4161095;28;20500;-69
2023/09/24 01:36:17;;;;;;;29.67;7.07;;;;;;;22.37;50.65;94406.44;4158699;28;20061;-68
2023/09/24 01:38:19;;;;;;;;;;;;;;;22.35;51.18;94405.84;4167981;28;20049;-67
2023/09/24 01:40:24;;;;;;;28.00;6.53;;;;;;;22.33;51.30;94405.28;4156781;28;19932;-70
2023/09/24 01:42:26;;;;;;;32.55;6.80;;;;;;;22.28;51.35;94407.84;4177866;28;20199;-69
2023/09/24 01:44:29;;;;;;;27.25;6.72;;;;;;;22.20;51.58;94408.19;4178099;28;20663;-69
2023/09/24 01:46:32;;;;;;;;;;;;;;;22.20;51.93;94403.69;4175573;28;20086;-66
2023/09/24 01:48:35;;;;;;;33.75;6.18;;;;;;;22.21;51.81;94402.63;4170630;28;19956;-67
2023/09/24 01:50:41;;;;;;;25.73;6.38;;;;;;;22.21;52.04;94397.28;4164203;28;20060;-68
2023/09/24 01:52:45;;;;;;;33.67;7.18;;;;;;;22.24;51.64;94394.19;4174298;28;20483;-68
2023/09/24 01:54:47;;;;;;;30.95;6.80;;;;;;;22.24;51.86;94396.03;4166959;28;20053;-68
2023/09/24 01:56:49;;;;;;;23.85;6.55;;;;;;;22.25;51.64;94397.66;4169316;28;20044;-69
2023/09/24 01:58:52;;;;;;;28.95;6.32;;;;;;;22.22;52.31;94400.75;4172956;28;20040;-68
2023/09/24 02:00:54;;;;;;;29.35;6.50;;;;;;;22.18;52.28;94387.09;4162993;28;20431;-68
2023/09/24 02:03:01;;;;;;;26.58;6.50;;;;;;;22.17;52.73;94393.47;4156408;28;20474;-68
2023/09/24 02:05:06;;;;;;;21.80;5.43;;;;;;;22.15;52.73;94387.56;4155840;28;20394;-68
2023/09/24 02:07:08;;;;;;;25.33;6.82;;;;;;;22.15;52.86;94389.44;4160147;28;20041;-68
2023/09/24 02:09:14;;;;;;;37.40;6.88;;;;;;;22.14;53.12;94387.81;4176961;28;20458;-69
2023/09/24 02:11:15;;;;;;;21.88;6.50;;;;;;;22.12;52.85;94392.59;4176304;28;20056;-69
2023/09/24 02:13:20;;;;;;;29.60;6.65;;;;;;;22.11;53.10;94397.09;4165613;28;20057;-68
2023/09/24 02:15:23;;;;;;;26.33;6.40;;;;;;;22.07;53.15;94396.78;4163813;28;20809;-68
2023/09/24 02:17:26;;;;;;;25.07;6.50;;;;;;;22.05;53.17;94400.72;4171955;28;20053;-68
2023/09/24 02:19:28;;;;;;;;;;;;;;;22.01;52.98;94400.38;4172114;28;20282;-68
2023/09/24 02:21:31;;;;;;;34.97;8.68;;;;;;;21.97;53.14;94399.25;4162674;28;20331;-68
2023/09/24 02:23:34;;;;;;;27.95;7.65;;;;;;;21.96;53.19;94394.97;4162469;28;20077;-68
2023/09/24 02:25:37;;;;;;;30.17;7.47;;;;;;;21.92;53.22;94407.16;4170403;28;20525;-66
2023/09/24 02:27:40;;;;;;;31.02;7.30;;;;;;;21.88;53.69;94412.13;4172328;28;20451;-67
2023/09/24 02:29:42;;;;;;;30.75;7.07;;;;;;;21.74;53.79;94408.09;4171075;28;20056;-67
2023/09/24 02:31:44;;;;;;;27.42;6.82;;;;;;;21.42;54.66;94413.03;4152823;28;20441;-69
2023/09/24 02:33:46;;;;;;;34.22;6.60;;;;;;;21.19;55.08;94401.31;4157557;28;20168;-68
2023/09/24 02:35:49;;;;;;;27.95;6.65;;;;;;;21.13;55.54;94399.59;4172143;28;20057;-66
2023/09/24 02:37:53;;;;;;;28.77;6.75;;;;;;;21.17;55.20;94395.41;4173708;28;20045;-67
2023/09/24 02:39:55;;;;;;;38.78;7.15;;;;;;;21.23;55.40;94407.81;4167052;28;20531;-67
2023/09/24 02:41:57;;;;;;;30.15;7.55;;;;;;;21.28;55.06;94410.56;4169944;28;20050;-68
2023/09/24 02:44:01;;;;;;;27.65;6.65;;;;;;;21.34;54.65;94411.50;4156017;28;20068;-67
2023/09/24 02:46:05;;;;;;;21.85;6.18;;;;;;;21.39;54.41;94408.94;4153953;28;20049;-69
2023/09/24 02:48:07;;;;;;;29.80;7.82;;;;;;;21.33;54.66;94404.53;4159796;28;20136;-67
2023/09/24 02:50:13;;;;;;;25.52;6.63;;;;;;;21.39;54.53;94416.13;4157090;28;20108;-68
2023/09/24 02:52:15;;;;;;;29.33;7.60;;;;;;;21.42;55.17;94402.38;4153957;28;20057;-69
2023/09/24 02:54:18;;;;;;;28.90;6.63;;;;;;;21.40;54.74;94405.25;4160573;28;20091;-68
2023/09/24 02:56:20;;;;;;;29.42;6.65;;;;;;;21.41;54.91;94406.06;4157755;28;20060;-69
2023/09/24 02:58:21;;;;;;;27.65;6.30;;;;;;;21.41;55.04;94409.56;4151976;28;20047;-68
2023/09/24 03:00:34;;;;;;;29.83;7.32;;;;;;;21.41;55.05;94406.06;4159139;28;20099;-68
2023/09/24 03:02:37;;;;;;;28.83;6.68;;;;;;;21.38;55.45;94417.16;4158897;28;20046;-67
2023/09/24 03:04:40;;;;;;;27.67;6.80;;;;;;;21.37;55.35;94410.22;4159952;28;20051;-68
2023/09/24 03:06:43;;;;;;;27.10;7.50;;;;;;;21.41;55.36;94401.56;4158208;28;20081;-69
2023/09/24 03:08:49;;;;;;;26.73;6.90;;;;;;;21.42;55.40;94405.03;4154994;28;20050;-68
2023/09/24 03:10:51;;;;;;;25.92;7.10;;;;;;;21.42;55.24;94413.03;4150630;28;20512;-69
2023/09/24 03:12:54;;;;;;;28.00;6.85;;;;;;;21.36;54.81;94406.75;4154926;28;20488;-69
2023/09/24 03:14:56;;;;;;;40.42;8.13;;;;;;;21.22;55.16;94414.16;4163715;28;20198;-67
2023/09/24 03:16:58;;;;;;;32.50;6.32;;;;;;;21.22;55.28;94414.16;4159669;28;20104;-68
2023/09/24 03:19:02;;;;;;;35.97;7.30;;;;;;;21.25;54.84;94411.06;4153191;28;20089;-68
2023/09/24 03:21:12;;;;;;;31.58;6.72;;;;;;;21.28;54.30;94415.91;4166084;28;20134;-68
2023/09/24 03:23:13;;;;;;;29.77;6.80;;;;;;;21.31;54.60;94401.31;4156176;28;20421;-67
2023/09/24 03:25:17;;;;;;;26.60;5.88;;;;;;;21.31;54.29;94411.16;4163743;28;20125;-67
2023/09/24 03:27:19;;;;;;;;;;;;;;;21.33;54.27;94412.53;4162796;28;20118;-68
2023/09/24 03:29:21;;;;;;;32.03;6.22;;;;;;;21.29;54.38;94414.03;4161154;28;19972;-69
2023/09/24 03:31:23;;;;;;;21.20;5.95;;;;;;;21.28;54.12;94417.75;4155885;28;20049;-67
2023/09/24 03:33:26;;;;;;;23.85;6.25;;;;;;;21.25;54.42;94421.72;4150523;28;20425;-69
2023/09/24 03:35:28;;;;;;;34.15;7.43;;;;;;;21.05;54.85;94426.56;4151219;28;20417;-69
2023/09/24 03:37:31;;;;;;;30.45;6.28;;;;;;;20.85;55.02;94414.38;4151802;28;20041;-69
2023/09/24 03:39:33;;;;;;;32.33;7.63;;;;;;;20.76;55.43;94421.09;4159134;28;20050;-67
2023/09/24 03:41:35;;;;;;;25.40;6.50;;;;;;;20.67;55.83;94409.13;4162463;28;20510;-69
2023/09/24 03:43:37;;;;;;;41.38;7.68;;;;;;;20.69;55.93;94408.91;4167999;28;20096;-67
2023/09/24 03:45:39;;;;;;;31.33;6.55;;;;;;;20.66;55.76;94408.31;4168927;28;20048;-67
2023/09/24 03:47:41;;;;;;;27.00;7.55;;;;;;;20.71;56.06;94415.63;4162258;28;20056;-67
2023/09/24 03:49:43;;;;;;;29.30;7.10;;;;;;;20.78;55.87;94420.84;4151450;28;20054;-68
2023/09/24 03:51:45;;;;;;;28.00;6.40;;;;;;;20.83;55.71;94421.78;4167500;28;20469;-68
2023/09/24 03:53:47;;;;;;;32.22;6.25;;;;;;;20.89;55.43;94422.72;4159793;28;20045;-69
2023/09/24 03:55:49;;;;;;;26.08;7.63;;;;;;;20.92;55.57;94424.91;4152341;28;20050;-68
2023/09/24 03:57:51;;;;;;;28.63;6.97;;;;;;;20.95;55.60;94427.13;4158317;28;20120;-68
2023/09/24 03:59:54;;;;;;;30.48;7.78;;;;;;;20.97;55.56;94416.22;4178171;28;20059;-68
2023/09/24 04:01:56;;;;;;;29.60;6.63;;;;;;;20.99;55.51;94422.16;4153117;28;20042;-69
2023/09/24 04:04:00;;;;;;;29.05;6.38;;;;;;;20.98;55.39;94428.53;4158164;28;20064;-72
2023/09/24 04:06:09;;;;;;;28.42;7.47;;;;;;;21.01;55.61;94428.84;4160720;28;20050;-70
2023/09/24 04:08:11;;;;;;;25.35;6.72;;;;;;;21.03;55.38;94437.44;4158645;28;20045;-69
2023/09/24 04:10:14;;;;;;;30.33;6.60;;;;;;;21.04;55.38;94438.25;4163352;28;20349;-70
2023/09/24 04:12:16;;;;;;;36.95;7.28;;;;;;;20.93;55.88;94436.38;4153590;28;20050;-69
2023/09/24 04:14:19;;;;;;;24.25;7.40;;;;;;;20.64;56.53;94438.88;4164303;28;20119;-70
2023/09/24 04:16:22;;;;;;;35.38;7.85;;;;;;;20.35;56.83;94451.94;4163562;28;20477;-69
2023/09/24 04:18:24;;;;;;;31.63;7.97;;;;;;;20.03;57.55;94459.31;4164116;28;20058;-69
2023/09/24 04:20:32;;;;;;;32.22;7.50;;;;;;;19.79;58.62;94474.34;4164567;28;20091;-69
2023/09/24 04:22:34;;;;;;;31.25;7.95;;;;;;;19.73;59.03;94481.34;4163853;28;20458;-70
2023/09/24 04:24:36;;;;;;;28.85;7.97;;;;;;;19.80;59.05;94497.22;4160128;28;20139;-68
2023/09/24 04:26:38;;;;;;;24.90;7.55;;;;;;;19.80;59.21;94497.22;4177640;28;20462;-70
2023/09/24 04:28:40;;;;;;;26.95;6.80;;;;;;;19.47;59.97;94492.19;4177165;28;20502;-70
2023/09/24 04:30:43;;;;;;;30.70;6.93;;;;;;;19.41;60.40;94496.53;4175142;28;20487;-72
2023/09/24 04:32:51;;;;;;;26.75;6.93;;;;;;;19.54;60.06;94496.41;4149374;28;20537;-69
2023/09/24 04:34:55;;;;;;;25.70;7.15;;;;;;;19.53;59.82;94496.63;4162385;28;20041;-70
2023/09/24 04:36:57;;;;;;;28.38;7.07;;;;;;;19.54;60.03;94498.25;4164797;28;20484;-68
2023/09/24 04:38:59;;;;;;;24.73;7.28;;;;;;;19.70;59.81;94491.59;4162215;28;20124;-70
2023/09/24 04:41:01;;;;;;;26.35;8.40;;;;;;;19.86;59.26;94491.00;4152524;28;20053;-70
2023/09/24 04:43:05;;;;;;;27.67;7.55;;;;;;;20.04;58.76;94498.97;4154065;28;20108;-69
2023/09/24 04:45:11;;;;;;;22.77;6.30;;;;;;;20.21;58.20;94495.72;4163373;28;20408;-69
2023/09/24 04:47:13;;;;;;;24.52;6.75;;;;;;;20.34;57.83;94497.41;4152653;28;20048;-69
2023/09/24 04:49:15;;;;;;;22.35;7.13;;;;;;;20.45;57.60;94502.75;4162887;28;20057;-68
2023/09/24 04:51:17;;;;;;;19.95;6.93;;;;;;;20.55;57.57;94496.09;4166924;28;20053;-71
2023/09/24 04:53:18;;;;;;;26.00;7.53;;;;;;;20.61;57.69;94492.56;4168043;28;20202;-69
2023/09/24 04:55:20;;;;;;;25.70;6.75;;;;;;;20.65;57.38;94496.41;4162694;28;20409;-69
2023/09/24 04:57:25;;;;;;;28.73;6.70;;;;;;;20.71;57.21;94489.34;4163565;28;20073;-71
2023/09/24 04:59:27;;;;;;;25.55;7.65;;;;;;;20.76;56.98;94487.63;4156622;28;20492;-69
2023/09/24 05:01:29;;;;;;;22.83;7.20;;;;;;;20.82;56.54;94497.38;4162982;28;20053;-71
2023/09/24 05:03:34;;;;;;;27.23;6.82;;;;;;;20.84;56.66;94495.31;4152398;28;20089;-69
2023/09/24 05:05:41;;;;;;;23.48;7.22;;;;;;;20.84;56.88;94491.81;4157888;28;20124;-70
2023/09/24 05:07:44;;;;;;;30.80;7.75;;;;;;;20.89;56.97;94486.63;4160542;28;20484;-71
2023/09/24 05:09:45;;;;;;;20.67;6.93;;;;;;;20.95;57.30;94482.22;4154917;28;20103;-70
2023/09/24 05:11:47;;;;;;;23.08;6.72;;;;;;;21.02;56.83;94493.59;4161220;28;20053;-70
2023/09/24 05:13:49;;;;;;;25.48;6.78;;;;;;;21.02;56.63;94488.28;4151530;28;20800;-70
2023/09/24 05:15:54;;;;;;;32.25;7.15;;;;;;;21.02;56.63;94481.09;4161040;28;20500;-68
2023/09/24 05:17:56;;;;;;;28.63;8.35;;;;;;;21.08;56.83;94492.69;4150849;28;20049;-70
2023/09/24 05:19:58;;;;;;;23.47;7.83;;;;;;;21.13;57.12;94494.66;4149295;28;20050;-68
2023/09/24 05:22:00;;;;;;;28.67;7.72;;;;;;;20.89;56.76;94483.13;4160950;28;20057;-67
2023/09/24 05:24:03;;;;;;;31.80;7.65;;;;;;;20.88;57.02;94497.50;4157291;28;20072;-70
2023/09/24 05:26:11;;;;;;;35.17;7.35;;;;;;;20.90;56.72;94498.09;4165681;28;20132;-68
2023/09/24 05:28:13;;;;;;;34.28;7.72;;;;;;;20.78;57.10;94490.88;4162031;28;20128;-73
2023/09/24 05:30:15;;;;;;;21.75;6.53;;;;;;;20.86;57.76;94506.53;4173478;28;20132;-70
2023/09/24 05:32:17;;;;;;;27.00;7.18;;;;;;;20.98;57.50;94501.22;4164598;28;20045;-69
2023/09/24 05:34:19;;;;;;;28.73;7.45;;;;;;;20.98;56.82;94508.41;4149595;28;20056;-69
2023/09/24 05:36:22;;;;;;;30.73;7.78;;;;;;;20.85;57.04;94512.09;4163764;28;20063;-69
2023/09/24 05:38:26;;;;;;;;;;;;;;;20.98;57.00;94514.53;4154030;28;20050;-70
2023/09/24 05:40:29;;;;;;;;;;;;;;;21.12;56.51;94515.13;4161141;28;19929;-68
2023/09/24 05:42:31;;;;;;;30.15;7.13;;;;;;;21.26;56.12;94510.44;4170414;28;19929;-69
2023/09/24 05:44:33;;;;;;;33.72;7.95;;;;;;;21.28;55.80;94506.47;4178247;28;20480;-70
2023/09/24 05:46:35;;;;;;;32.00;8.00;;;;;;;21.28;55.90;94508.34;4163152;28;20096;-70
2023/09/24 05:48:37;;;;;;;21.38;6.72;;;;;;;21.28;55.82;94513.69;4150269;28;21322;-68
2023/09/24 05:50:39;;;;;;;27.45;7.00;;;;;;;21.20;56.09;94509.47;4163613;28;20052;-70
2023/09/24 05:52:41;;;;;;;21.80;6.40;;;;;;;21.17;56.23;94514.47;4165649;28;20096;-70
2023/09/24 05:54:43;;;;;;;34.22;7.43;;;;;;;21.11;56.58;94512.72;4166007;28;20515;-70
2023/09/24 05:56:46;;;;;;;20.05;6.68;;;;;;;21.10;56.64;94517.25;4153489;28;20049;-70
2023/09/24 06:01:16;;;;;;;22.33;6.78;;;;;;;21.25;56.38;94519.44;4158808;28;20054;-71
2023/09/24 06:03:20;;;;;;;20.88;6.10;;;;;;;21.42;56.01;94519.63;4160168;28;20057;-70
2023/09/24 06:05:22;;;;;;;26.80;6.32;;;;;;;21.36;56.12;94528.50;4162596;28;20045;-69
2023/09/24 06:07:27;;;;;;;23.45;6.13;;;;;;;21.40;56.10;94519.84;4164146;28;20453;-70
2023/09/24 06:09:30;;;;;;;27.08;7.25;;;;;;;21.44;55.88;94522.84;4159235;28;20050;-72
2023/09/24 06:11:32;;;;;;;26.00;6.68;;;;;;;21.59;55.74;94517.06;4160948;28;20103;-72
2023/09/24 06:13:38;;;;;;;28.85;7.45;;;;;;;21.63;55.76;94513.72;4156883;28;20511;-71
2023/09/24 06:15:44;;;;;;;22.55;6.50;;;;;;;21.77;55.68;94526.78;4162939;28;20048;-71
2023/09/24 06:17:47;;;;;;;24.85;7.35;;;;;;;21.95;55.25;94521.34;4161109;28;20045;-69
2023/09/24 06:19:49;;;;;;;16.85;6.88;;;;;;;22.06;55.30;94520.50;4162911;28;20526;-69
2023/09/24 06:21:51;;;;;;;21.08;6.22;;;;;;;22.18;55.75;94522.38;4163115;28;20547;-71
2023/09/24 06:23:54;;;;;;;22.92;6.70;;;;;;;22.33;54.87;94525.38;4154755;28;20088;-71
2023/09/24 06:25:57;;;;;;;22.70;6.93;;;;;;;22.33;54.47;94516.53;4152152;28;20061;-70
2023/09/24 06:28:00;;;;;;;35.30;7.10;;;;;;;22.38;54.39;94519.31;4155849;28;20314;-71
2023/09/24 06:30:04;;;;;;;28.55;7.65;;;;;;;22.43;54.71;94522.88;4155177;28;20107;-71
2023/09/24 06:32:07;;;;;;;29.77;6.22;;;;;;;22.28;54.38;94509.25;4148646;28;20096;-69
2023/09/24 06:34:09;;;;;;;27.67;6.97;;;;;;;22.41;54.38;94513.50;4159886;28;20049;-69
2023/09/24 06:36:11;;;;;;;22.48;6.47;;;;;;;22.47;54.22;94517.88;4159385;28;20087;-71
2023/09/24 06:38:13;;;;;;;27.52;6.63;;;;;;;22.62;54.28;94522.72;4156480;28;20051;-70
2023/09/24 06:40:15;;;;;;;24.17;6.43;;;;;;;22.59;53.85;94521.34;4153207;28;20528;-68
2023/09/24 06:42:18;;;;;;;19.25;5.55;;;;;;;22.65;53.64;94511.53;4164688;28;20458;-70
2023/09/24 06:44:22;;;;;;;21.23;6.27;;;;;;;22.81;54.03;94528.69;4162311;28;20463;-73
2023/09/24 06:46:25;;;;;;;20.70;6.97;;;;;;;22.97;53.38;94519.88;4157459;28;20463;-71
2023/09/24 06:48:27;;;;;;;23.60;6.88;;;;;;;22.95;53.14;94518.50;4159283;28;20079;-70
2023/09/24 06:50:34;;;;;;;26.73;6.90;;;;;;;23.02;53.27;94530.69;4153266;28;20049;-74
2023/09/24 06:52:39;;;;;;;25.30;7.07;;;;;;;23.02;53.15;94521.88;4159481;28;20076;-70
2023/09/24 06:54:43;;;;;;;22.13;6.93;;;;;;;22.95;52.94;94519.31;4158939;28;20050;-71
2023/09/24 06:56:45;;;;;;;27.60;6.72;;;;;;;22.90;53.05;94516.53;4157908;28;20099;-71
2023/09/24 06:58:47;;;;;;;21.35;6.32;;;;;;;23.09;53.18;94523.31;4155143;28;20475;-70
2023/09/24 07:00:50;;;;;;;26.42;6.97;;;;;;;23.35;52.86;94514.94;4162505;28;20088;-69
2023/09/24 07:02:52;;;;;;;21.45;6.90;;;;;;;23.49;52.47;94508.22;4161774;28;20083;-71
2023/09/24 07:04:54;;;;;;;21.05;6.35;;;;;;;23.66;52.29;94517.03;4151100;28;20068;-69
2023/09/24 07:06:56;;;;;;;21.45;6.10;;;;;;;23.84;51.77;94517.84;4163487;28;20072;-69
2023/09/24 07:09:01;;;;;;;25.80;7.38;;;;;;;24.00;51.12;94508.94;4160571;28;20041;-71
2023/09/24 07:11:24;;;;;;;19.83;6.38;;;;;;;24.00;51.07;94508.94;4153879;28;20413;-69
2023/09/24 07:13:26;;;;;;;28.33;7.03;;;;;;;24.07;50.86;94511.44;4156580;28;20041;-69
2023/09/24 07:15:29;;;;;;;18.60;6.15;;;;;;;23.83;51.12;94506.34;4162320;28;20511;-69
2023/09/24 07:17:32;;;;;;;18.08;7.05;;;;;;;23.83;51.45;94513.53;4163687;28;20089;-68
2023/09/24 07:19:35;;;;;;;20.80;6.95;;;;;;;23.86;51.48;94518.41;4159871;28;20048;-69
2023/09/24 07:21:39;;;;;;;19.60;6.00;;;;;;;23.85;51.15;94509.53;4162003;28;20103;-69
2023/09/24 07:23:41;;;;;;;20.75;6.40;;;;;;;23.84;51.33;94517.84;4158313;28;20735;-70
2023/09/24 07:25:43;;;;;;;20.15;6.50;;;;;;;23.68;51.38;94520.25;4161715;28;20559;-72
2023/09/24 07:27:47;;;;;;;22.70;7.18;;;;;;;23.75;52.03;94519.25;4161747;28;20132;-70
2023/09/24 07:29:48;;;;;;;25.85;7.47;;;;;;;23.93;51.46;94521.69;4160434;28;20443;-69
2023/09/24 07:31:51;;;;;;;28.15;7.38;;;;;;;23.99;50.85;94526.06;4154166;28;20042;-71
2023/09/24 07:33:54;;;;;;;23.70;7.20;;;;;;;24.05;50.77;94525.09;4175845;28;20057;-73
2023/09/24 07:35:55;;;;;;;17.27;6.78;;;;;;;24.24;50.41;94522.94;4163801;28;20064;-71
2023/09/24 07:37:57;;;;;;;24.08;7.28;;;;;;;24.37;50.50;94521.75;4158502;28;20053;-71
2023/09/24 07:40:01;;;;;;;20.67;6.22;;;;;;;24.32;50.45;94519.00;4157896;28;20136;-71
2023/09/24 07:42:03;;;;;;;20.52;6.85;;;;;;;24.34;50.18;94522.22;4167785;28;20045;-71
2023/09/24 07:44:05;;;;;;;23.50;7.05;;;;;;;24.20;50.63;94504.91;4157687;28;20060;-69
2023/09/24 07:46:12;;;;;;;30.55;7.63;;;;;;;24.07;51.11;94508.75;4167062;28;20555;-71
2023/09/24 07:48:15;;;;;;;18.30;7.22;;;;;;;23.86;51.45;94515.72;4159134;28;20049;-70
2023/09/24 07:50:20;;;;;;;27.55;7.38;;;;;;;23.86;51.79;94515.72;4169519;28;20509;-70
2023/09/24 07:52:22;;;;;;;29.38;6.75;;;;;;;23.77;51.72;94507.31;4162765;28;20096;-69
2023/09/24 07:54:23;;;;;;;22.45;7.72;;;;;;;23.70;52.33;94503.94;4170678;28;20151;-71
2023/09/24 07:56:25;;;;;;;21.88;7.50;;;;;;;23.77;52.00;94512.66;4163675;28;20119;-69
2023/09/24 07:58:31;;;;;;;24.67;7.80;;;;;;;23.89;52.33;94515.22;4162826;28;20065;-74
2023/09/24 08:00:33;;;;;;;20.27;7.55;;;;;;;24.04;52.07;94512.75;4152278;28;20049;-70
2023/09/24 08:02:39;;;;;;;26.27;7.43;;;;;;;24.19;51.70;94501.44;4156084;28;20049;-72
2023/09/24 08:04:40;;;;;;;25.20;7.20;;;;;;;24.30;51.44;94494.34;4159904;28;20045;-70
2023/09/24 08:06:43;;;;;;;21.92;7.10;;;;;;;24.43;51.33;94485.91;4164856;28;20554;-71
2023/09/24 08:08:45;;;;;;;32.63;6.80;;;;;;;24.56;51.06;94491.97;4160484;28;20042;-70
2023/09/24 08:11:01;;;;;;;24.15;7.18;;;;;;;24.65;50.69;94490.47;4159248;28;20045;-71
2023/09/24 08:13:05;;;;;;;26.20;6.85;;;;;;;24.73;50.84;94493.50;4159667;28;20091;-69
2023/09/24 08:15:07;;;;;;;18.05;6.80;;;;;;;24.81;50.53;94489.56;4161680;28;20050;-71
2023/09/24 08:17:10;;;;;;;28.98;6.72;;;;;;;24.89;50.26;94486.44;4160979;28;20045;-70
2023/09/24 08:19:12;;;;;;;23.70;6.85;;;;;;;24.99;49.99;94490.25;4177255;28;20041;-71
2023/09/24 08:21:14;;;;;;;20.80;7.50;;;;;;;24.93;49.73;94476.03;4165644;28;20081;-68
2023/09/24 08:23:18;;;;;;;23.08;6.80;;;;;;;25.04;49.69;94472.38;4156494;28;20054;-71
2023/09/24 08:25:20;;;;;;;29.45;6.40;;;;;;;25.16;49.55;94469.50;4161416;28;20049;-72
2023/09/24 08:27:22;;;;;;;20.65;6.90;;;;;;;25.27;49.14;94475.78;4165643;28;20049;-71
2023/09/24 08:29:24;;;;;;;20.00;7.15;;;;;;;25.37;49.07;94475.06;4168111;28;20678;-71
2023/09/24 08:31:25;;;;;;;27.95;7.47;;;;;;;25.43;49.09;94471.38;4164831;28;20491;-70
2023/09/24 08:33:27;;;;;;;23.52;6.30;;;;;;;25.38;48.28;94468.63;4155847;28;20053;-72
2023/09/24 08:35:29;;;;;;;24.38;7.25;;;;;;;25.36;48.55;94462.72;4159470;28;20171;-68
2023/09/24 08:37:32;;;;;;;23.45;7.60;;;;;;;25.22;49.43;94462.34;4151346;28;20053;-70
2023/09/24 08:39:35;;;;;;;29.98;6.80;;;;;;;25.28;49.25;94461.34;4146719;28;20041;-70
2023/09/24 08:41:43;;;;;;;28.88;6.95;;;;;;;25.28;48.82;94461.34;4159398;28;20076;-72
2023/09/24 08:43:45;;;;;;;23.30;6.45;;;;;;;25.34;48.75;94455.75;4154351;28;20079;-71
2023/09/24 08:45:48;;;;;;;14.35;6.30;;;;;;;25.44;48.17;94462.25;4170671;28;20067;-73
2023/09/24 08:47:50;;;;;;;29.52;6.85;;;;;;;25.50;48.19;94458.53;4162194;28;20077;-70
2023/09/24 08:49:53;;;;;;;27.27;6.97;;;;;;;25.43;47.94;94453.41;4163301;28;20483;-68
2023/09/24 08:51:55;;;;;;;;;;;;;;;25.51;47.80;94460.13;4159259;28;20521;-70
2023/09/24 08:54:00;;;;;;;23.70;6.75;;;;;;;25.65;47.96;94455.16;4156141;28;20170;-71
2023/09/24 08:56:03;;;;;;;24.42;6.68;;;;;;;25.69;47.28;94451.69;4153059;28;20505;-70
2023/09/24 08:58:05;;;;;;;31.17;6.88;;;;;;;25.59;46.86;94446.25;4153238;28;20041;-71
2023/09/24 09:00:12;;;;;;;25.30;5.97;;;;;;;25.60;46.79;94452.41;4178504;28;20450;-69
2023/09/24 09:02:16;;;;;;;22.42;6.05;;;;;;;25.66;46.86;94452.22;4172032;28;20057;-71
2023/09/24 09:04:18;;;;;;;21.67;5.65;;;;;;;25.78;47.08;94453.88;4174312;28;20055;-71
2023/09/24 09:06:35;;;;;;;25.80;6.50;;;;;;;25.88;47.05;94453.94;4164731;28;20088;-71
2023/09/24 09:08:53;;;;;;;22.92;6.55;;;;;;;26.01;46.74;94450.81;4157469;28;20123;-73
2023/09/24 09:10:59;;;;;;;28.42;5.93;;;;;;;26.02;46.68;94454.28;4155510;28;20196;-73
2023/09/24 09:13:01;;;;;;;21.77;6.00;;;;;;;26.08;46.61;94456.75;4156347;28;20088;-71
2023/09/24 09:15:15;;;;;;;23.55;6.30;;;;;;;26.07;46.49;94452.44;4163453;28;20572;-70
2023/09/24 09:17:18;;;;;;;15.20;5.90;;;;;;;26.03;46.25;94456.72;4161657;28;20544;-69
2023/09/24 09:19:21;;;;;;;23.17;6.68;;;;;;;25.92;46.58;94447.81;4158856;28;20045;-71
2023/09/24 09:21:25;;;;;;;18.70;6.25;;;;;;;25.99;46.21;94450.25;4160611;28;20133;-70
2023/09/24 09:23:36;;;;;;;23.48;6.07;;;;;;;25.88;46.37;94451.25;4163825;28;20049;-70
2023/09/24 09:25:52;;;;;;;19.35;6.43;;;;;;;25.84;46.85;94448.28;4175913;28;20074;-71
2023/09/24 09:27:53;;;;;;;20.63;6.40;;;;;;;25.94;47.14;94452.91;4148760;28;20057;-71
2023/09/24 09:30:16;;;;;;;21.38;6.10;;;;;;;26.05;46.56;94457.28;4148518;28;20222;-71
2023/09/24 09:32:17;;;;;;;31.08;6.75;;;;;;;26.22;46.72;94462.44;4148729;28;20060;-71
2023/09/24 09:34:20;;;;;;;21.38;6.43;;;;;;;26.35;46.18;94448.53;4161494;28;20049;-71
2023/09/24 09:36:30;;;;;;;26.60;6.97;;;;;;;26.38;46.22;94452.56;4153567;28;20060;-69
2023/09/24 09:38:32;;;;;;;25.80;6.40;;;;;;;26.51;45.68;94451.25;4157120;28;20054;-71